Time;durP1;ratioP1;P1;durP2;ratioP2;P2;SDS_P1;SDS_P2;PMS_P1;PMS_P2;Temp;Humidity;BMP_temperature;BMP_pressure;BME280_temperature;BME280_humidity;BME280_pressure;Samples;Min_cycle;Max_cycle;Signal;HPM_P1;HPM_P2
2022/10/27 00:00:55;;;;;;;;;1.67;1.67;;;;;19.63;62.08;101330.38;2115675;27;46215;-69
2022/10/27 00:01:55;;;;;;;;;0.33;0.33;;;;;19.62;62.08;101328.66;2122028;27;46495;-71
2022/10/27 00:02:55;;;;;;;;;2.00;2.00;;;;;19.62;62.16;101327.78;2121197;27;45598;-69
2022/10/27 00:03:55;;;;;;;;;4.67;2.00;;;;;19.60;62.13;101330.53;2121830;27;46822;-71
2022/10/27 00:04:56;;;;;;;;;3.33;3.33;;;;;19.59;62.15;101334.19;2115721;27;45202;-71
2022/10/27 00:06:03;;;;;;;;;3.00;3.00;;;;;19.58;62.07;101328.88;2108778;27;46154;-71
2022/10/27 00:07:04;;;;;;;;;1.00;1.00;;;;;19.57;62.42;101322.63;2105643;27;46486;-71
2022/10/27 00:08:04;;;;;;;;;1.00;1.00;;;;;19.58;62.54;101327.06;2121726;27;46274;-73
2022/10/27 00:09:04;;;;;;;;;1.33;1.33;;;;;19.56;62.49;101323.53;2111143;27;46269;-71
2022/10/27 00:10:06;;;;;;;;;2.00;2.00;;;;;19.56;62.19;101328.94;2109234;27;46309;-72
2022/10/27 00:11:07;;;;;;;;;1.00;1.00;;;;;19.55;61.99;101331.69;2118173;27;47894;-73
2022/10/27 00:12:07;;;;;;;;;1.25;1.00;;;;;19.54;62.42;101328.09;2122362;27;46819;-71
2022/10/27 00:13:07;;;;;;;;;2.00;1.00;;;;;19.54;62.16;101327.22;2122023;27;46634;-72
2022/10/27 00:14:08;;;;;;;;;1.67;1.67;;;;;19.53;62.00;101330.88;2117816;27;45600;-72
2022/10/27 00:15:09;;;;;;;;;2.00;2.00;;;;;19.53;62.42;101330.88;2116581;27;45553;-70
2022/10/27 00:16:14;;;;;;;;;2.00;2.00;;;;;19.50;62.04;101337.28;2121187;27;45491;-71
2022/10/27 00:17:14;;;;;;;;;2.75;2.75;;;;;19.49;62.60;101338.25;2119658;27;45565;-71
2022/10/27 00:18:15;;;;;;;;;1.00;1.00;;;;;19.48;62.47;101335.63;2118595;27;46809;-72
2022/10/27 00:19:15;;;;;;;;;2.00;2.00;;;;;19.48;62.21;101335.63;2122106;27;46317;-72
2022/10/27 00:20:15;;;;;;;;;3.00;2.00;;;;;19.47;62.15;101334.75;2122194;27;46075;-71
2022/10/27 00:21:18;;;;;;;;;2.00;1.00;;;;;19.46;62.13;101338.41;2120001;27;46799;-74
2022/10/27 00:22:19;;;;;;;;;2.75;1.75;;;;;19.47;62.46;101344.66;2117246;27;46373;-71
2022/10/27 00:23:19;;;;;;;;;2.00;2.00;;;;;19.46;62.27;101340.22;2120676;27;46946;-72
2022/10/27 00:24:20;;;;;;;;;0.00;0.00;;;;;19.46;62.31;101345.59;2115359;27;46379;-70
2022/10/27 00:25:20;;;;;;;;;0.00;0.00;;;;;19.46;62.63;101342.91;2122024;27;45379;-69
2022/10/27 00:26:21;;;;;;;;;0.00;0.00;;;;;19.45;62.33;101350.13;2125841;27;46394;-70
2022/10/27 00:27:21;;;;;;;;;1.33;1.33;;;;;19.45;62.71;101342.03;2093351;28;46136;-72
2022/10/27 00:28:22;;;;;;;;;1.00;1.00;;;;;19.45;62.63;101341.16;2097697;28;46295;-72
2022/10/27 00:29:22;;;;;;;;;1.33;1.00;;;;;19.45;62.72;101341.16;2117811;27;46409;-72
2022/10/27 00:30:23;;;;;;;;;2.00;2.00;;;;;19.45;62.54;101341.16;2123478;27;46931;-72
2022/10/27 00:31:23;;;;;;;;;1.67;1.67;;;;;19.44;62.20;101340.28;2117320;27;45123;-71
2022/10/27 00:32:23;;;;;;;;;2.67;2.00;;;;;19.44;62.49;101337.59;2120004;27;46207;-72
2022/10/27 00:33:24;;;;;;;;;3.00;2.00;;;;;19.45;62.64;101338.47;2115604;27;45982;-72
2022/10/27 00:34:24;;;;;;;;;2.33;2.00;;;;;19.45;62.32;101341.16;2122105;27;46396;-71
2022/10/27 00:35:24;;;;;;;;;2.67;2.67;;;;;19.44;62.44;101340.28;2108080;27;45417;-71
2022/10/27 00:36:25;;;;;;;;;1.00;1.00;;;;;19.44;62.58;101342.09;2112993;27;46259;-72
2022/10/27 00:37:27;;;;;;;;;1.33;1.33;;;;;19.42;62.63;101337.66;2117176;27;46395;-72
2022/10/27 00:38:27;;;;;;;;;4.50;4.50;;;;;19.43;62.29;101343.91;2100234;28;46397;-71
2022/10/27 00:39:27;;;;;;;;;8.67;8.33;;;;;19.44;62.11;101343.00;2102610;28;46656;-71
2022/10/27 00:40:28;;;;;;;;;3.00;3.00;;;;;19.44;62.23;101342.09;2121552;27;46471;-71
2022/10/27 00:41:32;;;;;;;;;3.00;3.00;;;;;19.46;62.41;101348.28;2122518;27;45932;-71
2022/10/27 00:42:32;;;;;;;;;3.25;2.75;;;;;19.46;62.26;101348.28;2116667;27;45798;-72
2022/10/27 00:43:38;;;;;;;;;2.00;2.00;;;;;19.45;62.29;101342.03;2115254;27;46839;-73
2022/10/27 00:44:44;;;;;;;;;1.50;1.50;;;;;19.45;62.17;101346.56;2115291;27;46839;-73
2022/10/27 00:45:45;;;;;;;;;1.75;1.75;;;;;19.45;62.40;101342.03;2121923;27;46171;-71
2022/10/27 00:46:46;;;;;;;;;5.33;4.33;;;;;19.45;62.33;101342.03;2112273;27;46913;-72
2022/10/27 00:47:47;;;;;;;;;2.00;2.00;;;;;19.45;62.41;101342.03;2109885;27;46250;-71
2022/10/27 00:48:50;;;;;;;;;1.00;1.00;;;;;19.46;62.75;101332.16;2119487;27;45595;-72
2022/10/27 00:50:01;;;;;;;;;2.25;2.25;;;;;19.45;62.73;101331.28;2118538;27;46028;-72
2022/10/27 00:51:03;;;;;;;;;5.00;3.75;;;;;19.44;62.32;101337.59;2120777;27;46518;-71
2022/10/27 00:52:07;;;;;;;;;3.25;2.25;;;;;19.45;62.14;101330.41;2116126;27;45125;-71
2022/10/27 00:53:08;;;;;;;;;2.25;2.25;;;;;19.45;62.65;101335.78;2114866;27;46293;-72
2022/10/27 00:54:10;;;;;;;;;3.00;3.00;;;;;19.44;62.68;101337.59;2115664;27;46586;-71
2022/10/27 00:55:32;;;;;;;;;1.25;1.25;;;;;19.44;62.41;101336.69;2121479;27;46881;-70
2022/10/27 00:56:33;;;;;;;;;3.00;3.00;;;;;19.43;62.26;101335.84;2114851;27;46619;-71
2022/10/27 00:57:34;;;;;;;;;3.00;2.00;;;;;19.42;62.19;101337.66;2113739;27;45708;-71
2022/10/27 00:58:34;;;;;;;;;2.25;1.00;;;;;19.41;62.00;101340.41;2116820;27;46287;-73
2022/10/27 00:59:36;;;;;;;;;3.00;3.00;;;;;19.40;62.55;101333.28;2116665;27;45724;-71
2022/10/27 01:00:40;;;;;;;;;2.00;2.00;;;;;19.39;62.50;101335.13;2118012;27;46483;-71
2022/10/27 01:01:41;;;;;;;;;2.25;2.00;;;;;19.38;62.42;101329.81;2115462;27;46748;-71
2022/10/27 01:02:42;;;;;;;;;1.00;1.00;;;;;19.38;62.20;101336.06;2117123;27;46538;-72
2022/10/27 01:03:43;;;;;;;;;3.00;2.00;;;;;19.36;62.29;101329.88;2119434;27;46671;-71
2022/10/27 01:04:50;;;;;;;;;2.25;0.75;;;;;19.35;62.14;101330.84;2114034;27;46223;-71
2022/10/27 01:05:51;;;;;;;;;2.00;2.00;;;;;19.34;62.23;101328.22;2117964;27;46832;-70
2022/10/27 01:06:52;;;;;;;;;0.00;0.00;;;;;19.33;62.38;101321.09;2113246;27;46401;-71
2022/10/27 01:08:00;;;;;;;;;2.67;1.33;;;;;19.33;62.48;101326.47;2113572;27;47108;-72
2022/10/27 01:09:01;;;;;;;;;1.75;0.75;;;;;19.31;62.78;101328.34;2117990;27;46192;-72
2022/10/27 01:10:02;;;;;;;;;1.75;1.75;;;;;19.29;62.86;101323.03;2119800;27;46975;-69
2022/10/27 01:11:02;;;;;;;;;1.00;1.00;;;;;19.29;62.33;101324.88;2115287;27;46015;-71
2022/10/27 01:12:03;;;;;;;;;4.00;3.00;;;;;19.27;62.37;101322.25;2119567;27;46313;-71
2022/10/27 01:13:03;;;;;;;;;2.00;2.00;;;;;19.25;62.75;101320.59;2116428;27;45391;-71
2022/10/27 01:14:04;;;;;;;;;2.00;2.00;;;;;19.25;62.30;101321.47;2119595;27;45738;-71
2022/10/27 01:15:05;;;;;;;;;1.00;0.33;;;;;19.23;62.34;101309.03;2120931;27;46119;-71
2022/10/27 01:16:14;;;;;;;;;3.00;2.00;;;;;19.22;62.36;101315.34;2113070;27;46681;-72
2022/10/27 01:17:45;;;;;;;;;2.75;2.00;;;;;19.21;62.67;101319.88;2118814;27;46319;-71
2022/10/27 01:19:01;;;;;;;;;2.75;1.75;;;;;19.18;62.43;101311.91;2112881;27;45665;-70
2022/10/27 01:20:23;;;;;;;;;4.00;3.00;;;;;19.18;62.66;101317.31;2117781;27;46279;-70
2022/10/27 01:21:33;;;;;;;;;2.25;2.25;;;;;19.18;62.71;101321.81;2121564;27;46436;-71
2022/10/27 01:23:03;;;;;;;;;0.00;0.00;;;;;19.18;62.60;101317.31;2113059;27;46237;-70
2022/10/27 01:24:30;;;;;;;;;2.25;2.25;;;;;19.18;62.86;101319.13;2107205;27;46779;-69
2022/10/27 01:26:08;;;;;;;;;1.00;1.00;;;;;19.18;62.59;101324.50;2111764;27;46064;-70
2022/10/27 01:27:11;;;;;;;;;4.50;4.50;;;;;19.19;62.43;101316.38;2112452;27;46140;-70
2022/10/27 01:28:48;;;;;;;;;2.00;2.00;;;;;19.20;62.75;101315.44;2112260;27;46759;-72
2022/10/27 01:30:07;;;;;;;;;6.25;4.75;;;;;19.20;62.48;101314.56;2112370;27;46164;-72
2022/10/27 01:31:15;;;;;;;;;2.50;2.50;;;;;19.20;62.50;101317.25;2112562;27;46479;-70
2022/10/27 01:32:30;;;;;;;;;2.75;2.75;;;;;19.20;62.32;101309.19;2104571;27;46395;-71
2022/10/27 01:33:48;;;;;;;;;2.75;2.75;;;;;19.19;62.79;101319.06;2108019;27;45708;-70
2022/10/27 01:34:56;;;;;;;;;3.00;2.00;;;;;19.19;62.62;101304.75;2103877;28;46815;-71
2022/10/27 01:36:11;;;;;;;;;1.00;1.00;;;;;19.18;62.69;101313.75;2109559;27;46896;-70
2022/10/27 01:37:37;;;;;;;;;3.00;2.75;;;;;19.17;62.67;101310.19;2110446;27;45403;-70
2022/10/27 01:38:46;;;;;;;;;2.25;2.25;;;;;19.15;62.79;101304.00;2108740;27;47149;-69
2022/10/27 01:39:58;;;;;;;;;3.00;3.00;;;;;19.13;62.76;101305.03;2103764;27;46416;-71
2022/10/27 01:41:05;;;;;;;;;1.50;1.50;;;;;19.11;62.75;101311.34;2109289;27;45911;-70
2022/10/27 01:42:14;;;;;;;;;2.00;2.00;;;;;19.10;62.75;101303.38;2112335;27;46051;-70
2022/10/27 01:43:22;;;;;;;;;3.25;3.00;;;;;19.10;62.75;101306.94;2110588;27;45435;-70
2022/10/27 01:44:32;;;;;;;;;1.00;1.00;;;;;19.09;62.52;101307.88;2112377;27;47004;-70
2022/10/27 01:45:35;;;;;;;;;4.25;2.75;;;;;19.09;62.78;101310.56;2112377;27;46548;-69
2022/10/27 01:46:36;;;;;;;;;2.75;2.75;;;;;19.10;62.81;101308.75;2104659;27;46401;-70
2022/10/27 01:47:38;;;;;;;;;2.67;1.00;;;;;19.11;62.74;101303.28;2107663;27;44948;-69
2022/10/27 01:48:38;;;;;;;;;1.75;1.75;;;;;19.11;62.94;101305.97;2112111;27;46143;-69
2022/10/27 01:49:40;;;;;;;;;1.00;1.00;;;;;19.13;62.68;101313.09;2112282;27;46275;-70
2022/10/27 01:50:41;;;;;;;;;3.25;3.25;;;;;19.14;62.59;101309.47;2107396;27;46516;-70
2022/10/27 01:51:41;;;;;;;;;2.33;2.33;;;;;19.13;62.72;101300.53;2110456;27;45772;-70
2022/10/27 01:52:47;;;;;;;;;2.00;2.00;;;;;19.15;62.56;101303.13;2109707;27;45081;-71
2022/10/27 01:53:50;;;;;;;;;3.25;2.75;;;;;19.13;62.47;101303.22;2106413;27;46383;-70
2022/10/27 01:54:50;;;;;;;;;4.00;4.00;;;;;19.13;62.97;101308.59;2110634;27;46519;-70
2022/10/27 01:56:02;;;;;;;;;3.00;3.00;;;;;19.13;62.28;101310.41;2111468;27;45847;-70
2022/10/27 01:57:05;;;;;;;;;3.25;2.75;;;;;19.12;62.52;101309.53;2107817;27;46113;-71
2022/10/27 01:58:32;;;;;;;;;4.00;4.00;;;;;19.12;62.38;101309.53;2112324;27;45655;-70
2022/10/27 01:59:54;;;;;;;;;4.00;2.75;;;;;19.12;62.98;101306.84;2110705;27;46514;-70
2022/10/27 02:01:03;;;;;;;;;2.00;2.00;;;;;19.10;62.26;101304.25;2106294;27;46018;-70
2022/10/27 02:02:20;;;;;;;;;3.50;3.00;;;;;19.10;62.91;101308.75;2112611;27;47319;-71
2022/10/27 02:03:29;;;;;;;;;2.00;2.00;;;;;19.09;62.65;101310.56;2115675;27;46564;-71
2022/10/27 02:05:02;;;;;;;;;0.25;0.25;;;;;19.07;62.56;101303.53;2115614;27;46846;-70
2022/10/27 02:06:12;;;;;;;;;3.25;2.75;;;;;19.07;62.62;101306.22;2087110;28;45045;-71
2022/10/27 02:07:38;;;;;;;;;3.25;3.25;;;;;19.05;62.78;101305.38;2085036;28;45775;-71
2022/10/27 02:08:45;;;;;;;;;2.00;2.00;;;;;19.05;62.76;101310.75;2086796;28;46519;-70
2022/10/27 02:09:54;;;;;;;;;2.50;2.00;;;;;19.04;62.63;101304.50;2082586;28;46282;-71
2022/10/27 02:11:06;;;;;;;;;5.75;3.25;;;;;19.04;62.38;101298.25;2087178;28;46378;-70
2022/10/27 02:12:15;;;;;;;;;3.50;3.50;;;;;19.03;62.72;101289.31;2080534;28;46523;-69
2022/10/27 02:13:16;;;;;;;;;2.25;2.25;;;;;19.03;62.59;101294.69;2078710;28;46644;-70
2022/10/27 02:14:19;;;;;;;;;2.00;2.00;;;;;19.03;62.61;101289.31;2078465;28;46649;-69
2022/10/27 02:15:32;;;;;;;;;2.25;2.25;;;;;19.04;62.56;101287.50;2086659;28;46148;-70
2022/10/27 02:16:39;;;;;;;;;3.00;2.00;;;;;19.02;62.54;101286.72;2086923;28;45946;-70
2022/10/27 02:17:44;;;;;;;;;2.00;2.00;;;;;19.02;62.59;101290.25;2086657;28;46749;-69
2022/10/27 02:18:50;;;;;;;;;3.00;2.00;;;;;19.03;62.23;101283.06;2086464;28;46166;-71
2022/10/27 02:19:53;;;;;;;;;2.50;2.50;;;;;19.01;62.42;101282.28;2086694;28;46771;-70
2022/10/27 02:20:58;;;;;;;;;2.75;2.75;;;;;19.00;62.42;101283.22;2086826;28;46487;-71
2022/10/27 02:22:01;;;;;;;;;3.00;3.00;;;;;19.00;62.86;101285.91;2086492;28;46439;-69
2022/10/27 02:23:06;;;;;;;;;5.50;4.00;;;;;18.99;62.22;101289.56;2083239;28;45788;-71
2022/10/27 02:24:06;;;;;;;;;3.00;3.00;;;;;18.98;62.68;101277.91;2086691;28;46504;-71
2022/10/27 02:25:07;;;;;;;;;3.00;3.00;;;;;18.96;62.76;101269.06;2086570;28;46582;-71
2022/10/27 02:26:18;;;;;;;;;3.00;3.00;;;;;18.95;62.92;101283.44;2086804;28;45969;-71
2022/10/27 02:27:34;;;;;;;;;3.25;3.25;;;;;18.96;62.36;101281.63;2082705;28;46335;-70
2022/10/27 02:28:45;;;;;;;;;3.00;2.00;;;;;18.95;63.00;101279.88;2086528;28;46564;-71
2022/10/27 02:29:48;;;;;;;;;2.00;1.25;;;;;18.93;62.42;101269.22;2086970;28;45821;-72
2022/10/27 02:30:50;;;;;;;;;3.25;3.25;;;;;18.93;62.66;101266.53;2086499;28;46728;-72
2022/10/27 02:31:55;;;;;;;;;3.00;2.00;;;;;18.93;62.90;101268.31;2086471;28;47052;-71
2022/10/27 02:32:56;;;;;;;;;3.00;2.75;;;;;18.93;62.75;101271.91;2086603;28;44978;-71
2022/10/27 02:33:58;;;;;;;;;2.00;2.00;;;;;18.92;62.83;101267.44;2086586;28;45733;-73
2022/10/27 02:34:59;;;;;;;;;3.50;3.50;;;;;18.90;62.77;101274.72;2086483;28;46621;-71
2022/10/27 02:36:00;;;;;;;;;1.50;1.50;;;;;18.89;62.88;101277.47;2084806;28;46873;-69
2022/10/27 02:37:03;;;;;;;;;3.25;3.25;;;;;18.88;62.51;101271.22;2086455;28;46441;-70
2022/10/27 02:38:04;;;;;;;;;2.00;2.00;;;;;18.87;62.83;101272.16;2086288;28;46585;-71
2022/10/27 02:39:04;;;;;;;;;3.67;3.67;;;;;18.88;62.92;101270.34;2086663;28;45203;-71
2022/10/27 02:40:05;;;;;;;;;2.67;2.67;;;;;18.87;62.53;101272.16;2086389;28;46705;-70
2022/10/27 02:41:06;;;;;;;;;1.00;1.00;;;;;18.86;62.63;101272.25;2086375;28;46846;-70
2022/10/27 02:42:06;;;;;;;;;2.00;2.00;;;;;18.84;62.75;101264.25;2095323;27;46522;-69
2022/10/27 02:43:06;;;;;;;;;2.00;2.00;;;;;18.84;62.55;101266.94;2119335;27;46492;-70
2022/10/27 02:44:07;;;;;;;;;2.00;2.00;;;;;18.84;62.82;101271.47;2119069;27;46605;-70
2022/10/27 02:45:07;;;;;;;;;4.33;4.00;;;;;18.83;62.47;101269.72;2121085;27;46298;-70
2022/10/27 02:46:08;;;;;;;;;4.50;3.00;;;;;18.82;63.12;101263.47;2120646;27;47017;-70
2022/10/27 02:47:08;;;;;;;;;3.67;2.33;;;;;18.83;62.48;101261.66;2115080;27;45238;-70
2022/10/27 02:48:08;;;;;;;;;2.00;2.00;;;;;18.80;62.58;101265.31;2120003;27;45839;-68
2022/10/27 02:49:09;;;;;;;;;2.33;2.00;;;;;18.80;62.59;101262.63;2118988;27;46362;-70
2022/10/27 02:50:09;;;;;;;;;2.67;2.00;;;;;18.79;62.71;101260.91;2122285;27;46407;-71
2022/10/27 02:51:10;;;;;;;;;3.00;3.00;;;;;18.79;62.84;101263.59;2119642;27;46839;-70
2022/10/27 02:52:10;;;;;;;;;1.00;1.00;;;;;18.78;62.33;101270.78;2114324;27;46732;-69
2022/10/27 02:53:11;;;;;;;;;1.00;1.00;;;;;18.77;62.81;101269.03;2113238;27;45760;-70
2022/10/27 02:54:11;;;;;;;;;3.00;1.67;;;;;18.77;62.85;101262.78;2113660;27;47176;-70
2022/10/27 02:55:11;;;;;;;;;3.00;3.00;;;;;18.76;62.64;101267.28;2120888;27;47655;-70
2022/10/27 02:56:12;;;;;;;;;2.00;1.00;;;;;18.77;62.99;101269.03;2121186;27;46251;-71
2022/10/27 02:57:17;;;;;;;;;2.00;2.00;;;;;18.77;62.91;101262.78;2121002;27;46536;-70
2022/10/27 02:58:17;;;;;;;;;2.50;2.50;;;;;18.78;62.64;101268.09;2121189;27;46793;-70
2022/10/27 02:59:18;;;;;;;;;4.00;4.00;;;;;18.79;62.80;101260.91;2118063;27;46944;-70
2022/10/27 03:00:18;;;;;;;;;1.00;1.00;;;;;18.77;62.61;101257.41;2117336;27;46417;-70
2022/10/27 03:01:18;;;;;;;;;4.00;2.00;;;;;18.76;62.62;101261.91;2119746;27;46659;-70
2022/10/27 03:02:21;;;;;;;;;2.00;1.67;;;;;18.77;62.84;101268.16;2120034;27;45227;-70
2022/10/27 03:03:22;;;;;;;;;3.00;3.00;;;;;18.77;62.92;101268.16;2105640;27;47008;-71
2022/10/27 03:04:22;;;;;;;;;2.33;1.33;;;;;18.77;62.76;101265.47;2109164;27;45614;-70
2022/10/27 03:05:23;;;;;;;;;2.33;2.33;;;;;18.78;62.76;101269.91;2115224;27;46333;-71
2022/10/27 03:06:23;;;;;;;;;4.00;4.00;;;;;18.77;62.90;101270.84;2112504;27;46159;-70
2022/10/27 03:07:23;;;;;;;;;3.00;3.00;;;;;18.78;62.81;101270.78;2117035;27;46524;-69
2022/10/27 03:08:23;;;;;;;;;1.00;1.00;;;;;18.76;62.54;101259.22;2119492;27;46727;-69
2022/10/27 03:09:24;;;;;;;;;4.00;4.00;;;;;18.77;62.61;101265.47;2106320;27;46968;-71
2022/10/27 03:10:24;;;;;;;;;1.67;1.67;;;;;18.77;62.84;101262.78;2110091;27;45968;-69
2022/10/27 03:11:24;;;;;;;;;3.00;3.00;;;;;18.77;62.86;101270.84;2117225;27;45506;-69
2022/10/27 03:12:25;;;;;;;;;3.33;3.00;;;;;18.76;62.62;101269.13;2121264;27;45428;-71
2022/10/27 03:13:25;;;;;;;;;5.67;5.67;;;;;18.75;62.44;101273.63;2118153;27;47042;-69
2022/10/27 03:14:25;;;;;;;;;2.00;2.00;;;;;18.75;62.64;101270.06;2104154;28;46498;-69
2022/10/27 03:15:26;;;;;;;;;3.00;3.00;;;;;18.74;62.95;101277.25;2105356;28;45372;-69
2022/10/27 03:16:26;;;;;;;;;4.00;4.00;;;;;18.75;62.60;101270.06;2122673;27;45995;-70
2022/10/27 03:17:26;;;;;;;;;4.33;2.33;;;;;18.75;62.71;101265.56;2116816;27;46623;-69
2022/10/27 03:18:27;;;;;;;;;1.00;1.00;;;;;18.74;62.68;101268.31;2119452;27;45574;-69
2022/10/27 03:19:27;;;;;;;;;4.00;3.00;;;;;18.73;62.40;101266.56;2114151;27;46644;-70
2022/10/27 03:20:27;;;;;;;;;2.33;2.33;;;;;18.74;62.45;101261.13;2114201;27;46654;-70
2022/10/27 03:21:28;;;;;;;;;3.00;3.00;;;;;18.73;62.63;101264.75;2114127;27;46679;-69
2022/10/27 03:22:28;;;;;;;;;2.00;2.00;;;;;18.72;62.76;101263.00;2121290;27;46710;-70
2022/10/27 03:23:28;;;;;;;;;2.33;2.00;;;;;18.70;62.79;101256.84;2120516;27;45730;-70
2022/10/27 03:24:28;;;;;;;;;2.00;2.00;;;;;18.69;62.51;101260.47;2107741;27;46240;-70
2022/10/27 03:25:29;;;;;;;;;4.00;4.00;;;;;18.68;62.79;101255.19;2113277;27;46158;-71
2022/10/27 03:26:29;;;;;;;;;2.00;2.00;;;;;18.67;62.79;101248.91;2109486;27;47033;-70
2022/10/27 03:27:30;;;;;;;;;1.00;1.00;;;;;18.67;62.49;101250.72;2112371;27;46465;-71
2022/10/27 03:28:34;;;;;;;;;3.33;3.33;;;;;18.67;62.57;101256.09;2108051;27;46810;-71
2022/10/27 03:29:34;;;;;;;;;2.50;1.50;;;;;18.66;62.52;101247.16;2105492;27;46493;-70
2022/10/27 03:30:34;;;;;;;;;2.00;2.00;;;;;18.66;62.69;101248.97;2111954;27;45732;-70
2022/10/27 03:31:34;;;;;;;;;2.00;2.00;;;;;18.66;62.63;101257.91;2113295;27;46964;-69
2022/10/27 03:32:35;;;;;;;;;0.33;0.33;;;;;18.65;62.47;101257.97;2114819;27;45288;-71
2022/10/27 03:33:35;;;;;;;;;1.00;1.00;;;;;18.66;62.66;101257.03;2116237;27;46359;-70
2022/10/27 03:34:35;;;;;;;;;1.00;1.00;;;;;18.66;62.66;101268.66;2120413;27;46001;-70
2022/10/27 03:35:36;;;;;;;;;2.00;2.00;;;;;18.66;62.72;101268.66;2119277;27;46910;-71
2022/10/27 03:36:36;;;;;;;;;2.00;2.00;;;;;18.65;62.86;101277.66;2122549;27;46688;-69
2022/10/27 03:37:36;;;;;;;;;3.00;3.00;;;;;18.67;62.63;101269.53;2122251;27;46489;-71
2022/10/27 03:38:37;;;;;;;;;4.33;4.33;;;;;18.67;62.56;101266.84;2118145;27;46260;-70
2022/10/27 03:39:37;;;;;;;;;0.67;0.67;;;;;18.67;62.81;101269.53;2122045;27;46475;-72
2022/10/27 03:40:37;;;;;;;;;3.00;1.33;;;;;18.67;62.50;101269.53;2118754;27;45754;-71
2022/10/27 03:41:38;;;;;;;;;3.00;3.00;;;;;18.67;62.53;101273.09;2120930;27;45741;-72
2022/10/27 03:42:42;;;;;;;;;2.67;1.67;;;;;18.69;62.43;101270.38;2113901;27;46398;-70
2022/10/27 03:43:42;;;;;;;;;4.75;4.00;;;;;18.67;62.42;101269.53;2115433;27;46333;-70
2022/10/27 03:44:42;;;;;;;;;1.67;1.67;;;;;18.68;62.59;101271.31;2113649;27;46262;-71
2022/10/27 03:45:47;;;;;;;;;3.00;1.67;;;;;18.68;62.39;101265.94;2119356;27;46305;-69
2022/10/27 03:46:47;;;;;;;;;3.00;2.75;;;;;18.67;62.16;101259.66;2114056;27;45599;-71
2022/10/27 03:47:48;;;;;;;;;2.33;2.33;;;;;18.68;62.24;101263.25;2114068;27;45312;-70
2022/10/27 03:48:48;;;;;;;;;4.00;3.00;;;;;18.67;62.22;101264.16;2120097;27;46582;-71
2022/10/27 03:49:48;;;;;;;;;1.00;1.00;;;;;18.66;62.37;101263.28;2122098;27;45094;-71
2022/10/27 03:50:49;;;;;;;;;5.00;3.33;;;;;18.66;62.35;101263.28;2111235;27;46228;-70
2022/10/27 03:51:50;;;;;;;;;0.00;0.00;;;;;18.66;62.49;101265.97;2110840;27;46938;-71
2022/10/27 03:52:50;;;;;;;;;2.33;2.33;;;;;18.66;62.60;101262.41;2117520;27;46839;-71
2022/10/27 03:53:50;;;;;;;;;5.00;2.33;;;;;18.66;62.64;101273.16;2115431;27;46769;-70
2022/10/27 03:54:50;;;;;;;;;2.33;2.33;;;;;18.67;62.50;101266.84;2118106;27;45526;-70
2022/10/27 03:55:51;;;;;;;;;2.00;2.00;;;;;18.67;62.56;101278.47;2122235;27;46453;-69
2022/10/27 03:56:51;;;;;;;;;3.00;3.00;;;;;18.67;62.37;101274.91;2114310;27;46474;-70
2022/10/27 03:57:52;;;;;;;;;1.00;1.00;;;;;18.66;62.16;101273.16;2116329;27;45769;-70
2022/10/27 03:58:52;;;;;;;;;2.25;2.25;;;;;18.65;62.57;101255.28;2122538;27;46513;-70
2022/10/27 03:59:53;;;;;;;;;1.67;1.67;;;;;18.65;62.56;101258.84;2116693;27;45994;-71
2022/10/27 04:00:53;;;;;;;;;2.33;2.33;;;;;18.65;62.74;101258.84;2118916;27;46156;-70
2022/10/27 04:01:53;;;;;;;;;4.00;4.00;;;;;18.65;62.29;101261.53;2122311;27;46274;-69
2022/10/27 04:02:54;;;;;;;;;2.33;2.33;;;;;18.63;62.26;101260.72;2117649;27;46792;-70
2022/10/27 04:03:54;;;;;;;;;3.67;2.00;;;;;18.61;62.55;101259.91;2121954;27;45152;-70
2022/10/27 04:04:56;;;;;;;;;2.67;2.67;;;;;18.59;62.21;101260.94;2120550;27;46471;-70
2022/10/27 04:05:56;;;;;;;;;2.50;2.50;;;;;18.57;62.35;101262.81;2119379;27;46790;-71
2022/10/27 04:06:57;;;;;;;;;2.00;2.00;;;;;18.56;62.60;101264.66;2120122;27;46963;-71
2022/10/27 04:07:58;;;;;;;;;5.00;5.00;;;;;18.56;62.48;101266.47;2115793;27;46888;-69
2022/10/27 04:08:58;;;;;;;;;2.00;2.00;;;;;18.54;62.67;101270.06;2115373;27;45482;-71
2022/10/27 04:09:58;;;;;;;;;4.00;2.67;;;;;18.54;62.53;101269.19;2122070;27;46247;-71
2022/10/27 04:10:58;;;;;;;;;3.33;3.33;;;;;18.54;62.58;101271.88;2117226;27;46309;-70
2022/10/27 04:11:59;;;;;;;;;3.00;2.67;;;;;18.54;62.36;101272.75;2121602;27;46205;-70
2022/10/27 04:12:59;;;;;;;;;2.67;2.00;;;;;18.52;62.14;101269.25;2103459;28;46341;-70
2022/10/27 04:13:59;;;;;;;;;3.67;3.67;;;;;18.52;62.85;101269.25;2103976;28;46159;-70
2022/10/27 04:15:00;;;;;;;;;3.00;3.00;;;;;18.53;62.77;101262.94;2121671;27;46365;-69
2022/10/27 04:16:00;;;;;;;;;2.00;1.00;;;;;18.53;62.75;101270.13;2120706;27;46310;-71
2022/10/27 04:17:01;;;;;;;;;1.00;1.00;;;;;18.52;62.48;101271.09;2119810;27;46281;-70
2022/10/27 04:18:01;;;;;;;;;3.00;2.00;;;;;18.51;62.38;101262.16;2116890;27;47141;-71
2022/10/27 04:19:01;;;;;;;;;2.67;2.00;;;;;18.51;62.92;101269.34;2121995;27;46383;-70
2022/10/27 04:20:02;;;;;;;;;4.67;3.00;;;;;18.51;62.94;101266.66;2120763;27;45120;-70
2022/10/27 04:21:04;;;;;;;;;3.00;1.00;;;;;18.51;62.52;101263.97;2122130;27;46840;-70
2022/10/27 04:22:04;;;;;;;;;3.75;3.25;;;;;18.50;62.45;101263.09;2118979;27;46073;-69
2022/10/27 04:23:05;;;;;;;;;4.67;3.00;;;;;18.50;62.46;101264.91;2113327;27;46822;-70
2022/10/27 04:24:05;;;;;;;;;3.33;3.33;;;;;18.49;62.36;101266.72;2105281;27;45796;-70
2022/10/27 04:25:06;;;;;;;;;3.33;3.33;;;;;18.49;62.41;101261.34;2102741;28;46359;-71
2022/10/27 04:26:07;;;;;;;;;5.00;3.25;;;;;18.49;62.78;101260.47;2107099;27;47505;-70
2022/10/27 04:27:08;;;;;;;;;3.50;3.50;;;;;18.48;62.47;101261.44;2122137;27;46054;-69
2022/10/27 04:28:09;;;;;;;;;2.00;2.00;;;;;18.48;62.60;101259.63;2122024;27;46138;-69
2022/10/27 04:29:09;;;;;;;;;2.00;2.00;;;;;18.48;62.48;101262.28;2115190;27;47055;-70
2022/10/27 04:30:10;;;;;;;;;3.00;3.00;;;;;18.50;62.42;101268.47;2103668;27;46326;-70
2022/10/27 04:31:11;;;;;;;;;3.25;3.25;;;;;18.51;62.70;101272.03;2073382;28;46387;-71
2022/10/27 04:32:11;;;;;;;;;3.00;3.00;;;;;18.51;62.77;101267.53;2083939;28;45802;-71
2022/10/27 04:33:11;;;;;;;;;3.00;2.00;;;;;18.51;62.69;101263.97;2113588;27;46645;-69
2022/10/27 04:34:12;;;;;;;;;4.67;4.67;;;;;18.52;62.36;101269.25;2118614;27;46419;-70
2022/10/27 04:35:12;;;;;;;;;3.33;3.33;;;;;18.51;62.42;101266.66;2118292;27;46342;-70
2022/10/27 04:36:12;;;;;;;;;3.33;3.33;;;;;18.50;62.72;101263.09;2111864;27;46414;-70
2022/10/27 04:37:12;;;;;;;;;2.50;2.50;;;;;18.49;62.41;101264.03;2112488;27;46709;-69
2022/10/27 04:38:13;;;;;;;;;2.33;2.00;;;;;18.48;62.34;101264.97;2120302;27;46502;-70
2022/10/27 04:39:14;;;;;;;;;4.00;3.00;;;;;18.47;62.39;101257.88;2116846;27;45266;-69
2022/10/27 04:40:14;;;;;;;;;3.00;3.00;;;;;18.46;62.26;101258.81;2116606;27;46842;-69
2022/10/27 04:41:15;;;;;;;;;5.00;5.00;;;;;18.47;62.69;101262.38;2119753;27;45466;-69
2022/10/27 04:42:15;;;;;;;;;2.33;2.33;;;;;18.48;62.42;101258.75;2114518;27;46702;-71
2022/10/27 04:43:15;;;;;;;;;1.00;1.00;;;;;18.47;62.43;101257.00;2120166;27;47158;-70
2022/10/27 04:44:16;;;;;;;;;4.33;2.33;;;;;18.47;62.63;101248.94;2121239;27;46419;-70
2022/10/27 04:45:16;;;;;;;;;4.00;4.00;;;;;18.48;62.65;101250.69;2114886;27;46627;-71
2022/10/27 04:46:17;;;;;;;;;2.00;2.00;;;;;18.47;62.33;101247.13;2116960;27;46401;-72
2022/10/27 04:47:17;;;;;;;;;3.00;3.00;;;;;18.46;62.59;101245.38;2098730;28;46326;-70
2022/10/27 04:48:17;;;;;;;;;2.33;2.00;;;;;18.45;62.89;101249.00;2103940;28;46477;-70
2022/10/27 04:49:18;;;;;;;;;3.00;2.00;;;;;18.44;62.63;101247.25;2114947;27;46313;-70
2022/10/27 04:50:18;;;;;;;;;3.00;3.00;;;;;18.44;62.77;101249.97;2112932;27;46420;-70
2022/10/27 04:51:19;;;;;;;;;3.00;3.00;;;;;18.43;62.32;101245.53;2109088;27;46939;-70
2022/10/27 04:52:19;;;;;;;;;3.00;3.00;;;;;18.41;62.80;101244.69;2117237;27;46746;-70
2022/10/27 04:53:19;;;;;;;;;1.67;1.67;;;;;18.42;62.71;101243.78;2113503;27;46663;-71
2022/10/27 04:54:19;;;;;;;;;2.67;2.67;;;;;18.42;62.53;101242.88;2121839;27;46233;-71